Time;durP1;ratioP1;P1;durP2;ratioP2;P2;SDS_P1;SDS_P2;PMS_P1;PMS_P2;Temp;Humidity;BMP_temperature;BMP_pressure;BME280_temperature;BME280_humidity;BME280_pressure;Samples;Min_cycle;Max_cycle;Signal;HPM_P1;HPM_P2
2022/11/24 00:01:35;;;;;;;49.90;19.30;;;;;;;-1.62;100.00;99349.06;105873;1288;72884;-77
2022/11/24 00:04:22;;;;;;;53.90;18.70;;;;;;;-1.56;100.00;99347.98;105865;1285;68630;-77
2022/11/24 00:07:11;;;;;;;47.70;18.80;;;;;;;-1.48;100.00;99353.95;105133;1287;1002267;-78
2022/11/24 00:09:58;;;;;;;51.70;18.10;;;;;;;-1.41;100.00;99353.66;105870;1293;57235;-78
2022/11/24 00:12:46;;;;;;;47.30;17.70;;;;;;;-1.43;100.00;99350.77;105158;1278;1002291;-78
2022/11/24 00:15:33;;;;;;;49.70;18.50;;;;;;;-1.47;100.00;99346.75;105704;1298;73877;-77
2022/11/24 00:18:21;;;;;;;47.90;18.20;;;;;;;-1.53;100.00;99344.03;105911;1291;67756;-77
2022/11/24 00:21:09;;;;;;;44.80;17.20;;;;;;;-1.58;100.00;99343.52;105858;1284;71350;-77
2022/11/24 00:23:57;;;;;;;49.80;18.50;;;;;;;-1.62;100.00;99342.81;105856;1299;58851;-77
2022/11/24 00:26:44;;;;;;;49.30;18.50;;;;;;;-1.62;100.00;99344.55;105896;1285;58634;-76
2022/11/24 00:29:32;;;;;;;49.40;18.40;;;;;;;-1.60;100.00;99343.79;105548;1285;72975;-77
2022/11/24 00:32:19;;;;;;;50.80;19.50;;;;;;;-1.60;100.00;99349.17;105757;1295;67997;-77
2022/11/24 00:35:07;;;;;;;47.90;18.00;;;;;;;-1.64;100.00;99346.91;105883;1292;73476;-78
2022/11/24 00:37:55;;;;;;;56.90;20.50;;;;;;;-1.68;100.00;99346.17;105848;1292;58662;-77
2022/11/24 00:40:43;;;;;;;50.40;19.70;;;;;;;-1.72;100.00;99347.71;105745;1295;61851;-77
2022/11/24 00:43:31;;;;;;;52.40;19.80;;;;;;;-1.75;100.00;99357.58;105162;1294;1002568;-78
2022/11/24 00:46:19;;;;;;;53.60;19.80;;;;;;;-1.74;100.00;99360.83;105862;1292;67839;-77
2022/11/24 00:49:07;;;;;;;48.70;19.90;;;;;;;-1.72;100.00;99364.77;105877;1292;72724;-77
2022/11/24 00:51:55;;;;;;;52.30;19.90;;;;;;;-1.74;100.00;99362.58;105128;1300;1002326;-77
2022/11/24 00:54:43;;;;;;;37.30;13.20;;;;;;;-1.80;100.00;99371.02;105894;1292;59219;-77
2022/11/24 00:57:34;;;;;;;54.90;19.90;;;;;;;-1.86;100.00;99365.83;105897;1292;73195;-77
2022/11/24 01:00:21;;;;;;;54.90;21.40;;;;;;;-1.85;100.00;99369.59;105863;1292;68779;-78
2022/11/24 01:03:09;;;;;;;46.10;16.90;;;;;;;-1.82;100.00;99372.96;105840;1300;73782;-77
2022/11/24 01:06:16;;;;;;;51.40;19.00;;;;;;;-1.82;100.00;99372.61;105869;1292;58869;-77
2022/11/24 01:09:04;;;;;;;52.00;17.90;;;;;;;-1.79;100.00;99368.67;105878;1292;58602;-76
2022/11/24 01:12:01;;;;;;;51.50;20.10;;;;;;;-1.78;100.00;99370.05;105863;1291;73121;-77
2022/11/24 01:14:48;;;;;;;52.70;19.10;;;;;;;-1.77;100.00;99370.54;105879;1287;65774;-79
2022/11/24 01:17:36;;;;;;;53.80;20.80;;;;;;;-1.81;100.00;99369.29;105868;1285;73498;-77
2022/11/24 01:20:24;;;;;;;56.90;21.90;;;;;;;-1.84;100.00;99370.23;105883;1289;58731;-78
2022/11/24 01:23:11;;;;;;;62.00;22.50;;;;;;;-1.83;100.00;99370.58;105724;1294;61128;-79
2022/11/24 01:26:03;;;;;;;60.70;23.00;;;;;;;-1.80;100.00;99372.70;105756;1295;71622;-78
2022/11/24 01:28:56;;;;;;;60.50;21.90;;;;;;;-1.76;100.00;99379.70;105882;1288;66229;-78
2022/11/24 01:31:43;;;;;;;60.30;21.70;;;;;;;-1.72;100.00;99382.33;105723;1294;72400;-77
2022/11/24 01:34:31;;;;;;;59.40;22.30;;;;;;;-1.68;100.00;99380.45;105830;1292;58506;-77
2022/11/24 01:37:19;;;;;;;59.10;22.50;;;;;;;-1.67;100.00;99375.55;105872;1292;61581;-78
2022/11/24 01:40:08;;;;;;;49.20;19.20;;;;;;;-1.65;100.00;99372.85;105161;1292;1014822;-76
2022/11/24 01:42:56;;;;;;;59.10;21.10;;;;;;;-1.63;100.00;99367.57;105761;1292;66909;-77
2022/11/24 01:45:44;;;;;;;68.50;22.00;;;;;;;-1.59;100.00;99366.35;105872;1288;71704;-76
2022/11/24 01:48:42;;;;;;;59.50;22.30;;;;;;;-1.57;100.00;99366.63;105863;1285;58509;-78
2022/11/24 01:51:35;;;;;;;62.90;22.90;;;;;;;-1.57;100.00;99367.50;105765;1295;60369;-80
2022/11/24 01:54:30;;;;;;;60.10;22.60;;;;;;;-1.55;100.00;99367.24;105760;1285;72828;-77
2022/11/24 01:57:34;;;;;;;60.20;22.90;;;;;;;-1.53;100.00;99370.65;105773;1287;67532;-77
2022/11/24 02:00:22;;;;;;;43.70;15.80;;;;;;;-1.52;100.00;99368.86;105693;1286;72514;-78
2022/11/24 02:03:18;;;;;;;62.10;23.60;;;;;;;-1.52;100.00;99372.71;105162;1292;1002828;-77
2022/11/24 02:06:15;;;;;;;69.30;24.70;;;;;;;-1.52;100.00;99375.98;105768;1292;60257;-77
2022/11/24 02:09:15;;;;;;;63.80;22.50;;;;;;;-1.51;100.00;99378.20;105909;1293;72715;-77
2022/11/24 02:12:04;;;;;;;61.20;21.80;;;;;;;-1.49;100.00;99374.85;105877;1292;67912;-77
2022/11/24 02:14:54;;;;;;;66.30;22.30;;;;;;;-1.46;100.00;99374.55;105017;1294;1002424;-77
2022/11/24 02:17:43;;;;;;;67.50;23.20;;;;;;;-1.42;100.00;99375.95;105749;1292;60327;-78
2022/11/24 02:20:31;;;;;;;61.50;23.50;;;;;;;-1.36;100.00;99371.21;105881;1285;60078;-78
2022/11/24 02:24:06;;;;;;;59.80;21.80;;;;;;;-1.30;100.00;99370.45;105890;1292;71831;-77
2022/11/24 02:26:54;;;;;;;63.90;23.00;;;;;;;-1.26;100.00;99373.61;105870;1291;68849;-77
2022/11/24 02:29:43;;;;;;;55.00;17.70;;;;;;;-1.22;100.00;99373.44;105856;1284;74010;-78
2022/11/24 02:32:32;;;;;;;61.60;23.00;;;;;;;-1.24;99.87;99366.90;105760;1296;57226;-77
2022/11/24 02:35:20;;;;;;;60.80;23.10;;;;;;;-1.24;99.91;99364.97;105025;1296;1002260;-78
2022/11/24 02:38:12;;;;;;;63.00;22.40;;;;;;;-1.22;99.97;99366.11;105767;1286;73897;-79
2022/11/24 02:41:06;;;;;;;64.90;23.10;;;;;;;-1.22;99.67;99374.14;105718;1290;68877;-78
2022/11/24 02:43:58;;;;;;;61.90;22.10;;;;;;;-1.26;99.45;99374.09;105705;1295;73702;-78
2022/11/24 02:46:46;;;;;;;60.80;22.20;;;;;;;-1.29;99.41;99367.95;104911;1295;1002656;-78
2022/11/24 02:49:34;;;;;;;60.50;22.40;;;;;;;-1.29;99.86;99365.88;105101;1294;1002499;-78
2022/11/24 02:52:22;;;;;;;52.80;19.30;;;;;;;-1.29;99.78;99370.73;105791;1293;72781;-78
2022/11/24 02:55:10;;;;;;;64.10;22.20;;;;;;;-1.31;99.51;99376.23;105735;1295;67718;-78
2022/11/24 02:57:58;;;;;;;64.60;23.00;;;;;;;-1.32;99.49;99379.58;105729;1292;72438;-78
2022/11/24 03:00:46;;;;;;;64.00;23.10;;;;;;;-1.33;99.59;99379.80;105805;1287;58520;-78
2022/11/24 03:03:34;;;;;;;55.40;20.10;;;;;;;-1.33;99.49;99380.85;105817;1294;58741;-78
2022/11/24 03:06:22;;;;;;;58.50;22.00;;;;;;;-1.37;99.31;99380.65;105695;1295;74021;-79
2022/11/24 03:09:10;;;;;;;55.50;21.20;;;;;;;-1.40;99.38;99382.52;105869;1287;67873;-77
2022/11/24 03:11:58;;;;;;;54.50;20.70;;;;;;;-1.40;99.63;99378.84;105890;1294;69768;-78
2022/11/24 03:14:45;;;;;;;56.40;20.50;;;;;;;-1.38;99.58;99377.02;105857;1295;57237;-78
2022/11/24 03:17:33;;;;;;;62.10;20.90;;;;;;;-1.37;99.80;99374.91;105758;1288;60307;-78
2022/11/24 03:20:20;;;;;;;61.80;21.00;;;;;;;-1.41;99.55;99374.52;105792;1288;72813;-78
2022/11/24 03:23:08;;;;;;;48.90;16.60;;;;;;;-1.44;99.42;99374.30;105858;1294;67890;-78
2022/11/24 03:26:10;;;;;;;58.70;20.40;;;;;;;-1.48;99.13;99376.55;105822;1295;72568;-78
2022/11/24 03:28:58;;;;;;;53.00;18.70;;;;;;;-1.48;99.76;99382.80;105832;1291;58679;-79
2022/11/24 03:31:46;;;;;;;46.80;17.10;;;;;;;-1.47;99.84;99379.80;105842;1288;60062;-78
2022/11/24 03:34:33;;;;;;;55.00;19.00;;;;;;;-1.51;99.35;99380.48;105801;1294;72802;-78
2022/11/24 03:37:22;;;;;;;52.10;19.00;;;;;;;-1.55;99.38;99375.95;105854;1292;69201;-78
2022/11/24 03:40:10;;;;;;;48.50;18.10;;;;;;;-1.56;99.56;99375.63;105893;1292;72893;-77
2022/11/24 03:42:58;;;;;;;52.60;18.60;;;;;;;-1.57;99.37;99381.23;105882;1292;57244;-78
2022/11/24 03:45:48;;;;;;;40.90;15.50;;;;;;;-1.58;99.41;99380.92;105165;1285;1002023;-78
2022/11/24 03:48:35;;;;;;;54.10;19.60;;;;;;;-1.62;99.24;99384.22;105902;1290;72041;-79
2022/11/24 03:51:23;;;;;;;47.50;17.90;;;;;;;-1.62;99.44;99382.66;105875;1292;67580;-77
2022/11/24 03:54:11;;;;;;;51.90;17.80;;;;;;;-1.62;99.51;99390.64;105870;1288;73735;-78
2022/11/24 03:56:59;;;;;;;51.30;20.00;;;;;;;-1.59;99.38;99398.56;105874;1292;60008;-79
2022/11/24 03:59:46;;;;;;;49.70;18.50;;;;;;;-1.60;99.09;99394.55;105799;1295;59172;-79
2022/11/24 04:02:34;;;;;;;52.20;19.30;;;;;;;-1.60;99.21;99397.19;105757;1294;72721;-78
2022/11/24 04:05:24;;;;;;;49.60;19.60;;;;;;;-1.57;99.36;99394.82;105762;1292;66847;-80
2022/11/24 04:08:12;;;;;;;37.50;14.40;;;;;;;-1.51;99.72;99393.89;105534;1292;72605;-79
2022/11/24 04:11:00;;;;;;;53.30;19.20;;;;;;;-1.52;99.03;99399.15;105018;1295;1002702;-79
2022/11/24 04:13:48;;;;;;;48.10;17.50;;;;;;;-1.52;99.10;99407.66;105737;1288;58691;-79
2022/11/24 04:16:36;;;;;;;52.50;18.60;;;;;;;-1.49;99.39;99409.65;105716;1294;71613;-81
2022/11/24 04:19:24;;;;;;;60.20;20.40;;;;;;;-1.48;99.30;99418.46;105144;1291;1001963;-78
2022/11/24 04:22:12;;;;;;;55.20;21.10;;;;;;;-1.46;99.17;99427.98;105021;1292;1015228;-81
2022/11/24 04:24:59;;;;;;;52.90;19.30;;;;;;;-1.46;99.00;99435.96;105545;1292;58450;-80
2022/11/24 04:27:51;;;;;;;49.60;20.10;;;;;;;-1.44;99.00;99437.11;105560;1293;57797;-81
2022/11/24 04:30:43;;;;;;;47.60;18.00;;;;;;;-1.43;98.74;99439.69;105729;1293;73034;-80
2022/11/24 04:33:32;;;;;;;47.80;18.20;;;;;;;-1.46;98.49;99438.41;105650;1296;67952;-81
2022/11/24 04:36:19;;;;;;;45.20;16.30;;;;;;;-1.48;98.67;99440.59;105771;1298;71343;-80
2022/11/24 04:39:07;;;;;;;52.30;19.30;;;;;;;-1.49;98.63;99439.41;105013;1296;1002276;-80
2022/11/24 04:42:13;;;;;;;48.00;17.90;;;;;;;-1.52;98.37;99449.10;105759;1297;60079;-77
2022/11/24 04:45:01;;;;;;;43.00;16.20;;;;;;;-1.51;98.76;99453.56;105637;1290;73144;-79
2022/11/24 04:47:49;;;;;;;47.80;18.10;;;;;;;-1.48;98.85;99454.85;105724;1292;66493;-79
2022/11/24 04:50:38;;;;;;;43.90;16.70;;;;;;;-1.47;98.44;99459.67;105588;1292;71384;-81
2022/11/24 04:53:26;;;;;;;47.10;18.80;;;;;;;-1.52;98.10;99464.92;105676;1284;57228;-80
2022/11/24 04:56:14;;;;;;;43.10;16.20;;;;;;;-1.55;98.56;99461.73;104843;1291;1002497;-83
2022/11/24 04:59:01;;;;;;;47.30;17.00;;;;;;;-1.55;98.82;99465.55;105753;1292;72864;-82
2022/11/24 05:01:54;;;;;;;46.70;17.10;;;;;;;-1.57;98.32;99466.14;105827;1292;66172;-82
2022/11/24 05:04:43;;;;;;;48.10;17.30;;;;;;;-1.61;98.16;99460.23;105640;1288;72581;-81
2022/11/24 05:07:31;;;;;;;44.90;17.30;;;;;;;-1.62;98.73;99452.41;105734;1290;57601;-80
2022/11/24 05:10:36;;;;;;;47.00;17.00;;;;;;;-1.59;98.84;99446.39;105112;1291;1002748;-80
2022/11/24 05:13:24;;;;;;;45.40;17.40;;;;;;;-1.55;98.95;99441.52;105836;1295;73906;-81
2022/11/24 05:16:11;;;;;;;41.20;15.40;;;;;;;-1.49;98.69;99440.61;105815;1287;69084;-79
2022/11/24 05:18:59;;;;;;;44.00;15.90;;;;;;;-1.47;98.28;99440.71;105851;1300;73993;-78
2022/11/24 05:21:47;;;;;;;30.70;11.60;;;;;;;-1.44;98.27;99445.31;105843;1291;57345;-79
2022/11/24 05:24:35;;;;;;;33.40;12.60;;;;;;;-1.47;97.70;99447.83;105864;1300;60412;-79
2022/11/24 05:27:23;;;;;;;38.70;15.50;;;;;;;-1.52;97.55;99443.50;105847;1292;72862;-81
2022/11/24 05:30:11;;;;;;;49.00;17.90;;;;;;;-1.52;97.63;99453.07;105615;1292;68043;-83
2022/11/24 05:33:06;;;;;;;34.80;13.30;;;;;;;-1.52;97.59;99456.38;105720;1281;72633;-79
2022/11/24 05:35:54;;;;;;;36.10;12.80;;;;;;;-1.57;97.02;99456.42;105712;1292;58160;-83
2022/11/24 05:38:41;;;;;;;40.60;16.50;;;;;;;-1.62;97.17;99456.23;105744;1292;58184;-78
2022/11/24 05:41:28;;;;;;;42.80;15.90;;;;;;;-1.62;97.53;99461.64;105865;1292;74347;-80
2022/11/24 05:44:16;;;;;;;44.20;16.20;;;;;;;-1.62;97.54;99464.92;104988;1292;1002759;-78
2022/11/24 05:47:04;;;;;;;43.10;17.00;;;;;;;-1.63;97.78;99462.02;105735;1284;168620;-78
2022/11/24 05:49:52;;;;;;;44.00;15.50;;;;;;;-1.64;97.91;99468.66;105846;1292;57413;-79
2022/11/24 05:52:39;;;;;;;39.90;15.00;;;;;;;-1.65;97.87;99473.76;105114;1292;1002931;-78
2022/11/24 05:55:27;;;;;;;49.10;16.80;;;;;;;-1.68;97.55;99474.39;105832;1292;71687;-79
2022/11/24 05:58:15;;;;;;;47.60;17.60;;;;;;;-1.71;97.63;99472.04;105870;1291;67609;-79
2022/11/24 06:01:06;;;;;;;45.00;16.90;;;;;;;-1.68;98.18;99471.92;105839;1290;72621;-77
2022/11/24 06:03:54;;;;;;;42.70;15.20;;;;;;;-1.65;98.02;99467.15;105861;1292;57892;-79
2022/11/24 06:06:41;;;;;;;45.40;16.80;;;;;;;-1.63;98.35;99465.51;105879;1284;60587;-79
2022/11/24 06:09:29;;;;;;;43.80;16.50;;;;;;;-1.58;98.73;99460.97;105886;1287;72858;-79
2022/11/24 06:12:17;;;;;;;46.30;16.50;;;;;;;-1.52;98.59;99460.73;105876;1290;66222;-80
2022/11/24 06:15:05;;;;;;;39.20;11.90;;;;;;;-1.52;97.99;99459.17;105698;1298;73900;-79
2022/11/24 06:17:54;;;;;;;33.90;12.70;;;;;;;-1.56;97.72;99456.88;105733;1287;57672;-79
2022/11/24 06:20:42;;;;;;;39.50;14.20;;;;;;;-1.56;97.83;99462.13;105844;1285;58707;-78
2022/11/24 06:23:49;;;;;;;37.70;13.20;;;;;;;-1.57;97.66;99471.89;105136;1292;1002029;-78
2022/11/24 06:26:37;;;;;;;38.60;14.40;;;;;;;-1.62;97.32;99464.23;105964;1292;65518;-80
2022/11/24 06:29:24;;;;;;;35.00;12.10;;;;;;;-1.71;96.89;99467.54;105115;1291;1002325;-79
2022/11/24 06:32:13;;;;;;;35.60;13.90;;;;;;;-1.81;96.62;99482.33;105812;1292;58999;-78
2022/11/24 06:35:00;;;;;;;41.20;14.60;;;;;;;-1.83;97.08;99484.66;105899;1292;60293;-79
2022/11/24 06:37:48;;;;;;;38.00;14.80;;;;;;;-1.83;97.25;99486.41;105874;1285;73825;-78
2022/11/24 06:40:36;;;;;;;38.20;14.20;;;;;;;-1.85;97.37;99488.91;105859;1298;66595;-80
2022/11/24 06:43:26;;;;;;;38.50;13.00;;;;;;;-1.86;97.38;99487.04;105098;1292;1002516;-79
2022/11/24 06:46:14;;;;;;;40.80;14.90;;;;;;;-1.87;97.52;99493.84;105722;1289;57778;-80
2022/11/24 06:49:02;;;;;;;38.20;14.40;;;;;;;-1.87;97.72;99498.20;105135;1284;1002938;-79
2022/11/24 06:51:50;;;;;;;39.70;14.90;;;;;;;-1.86;97.54;99505.66;105856;1279;72987;-77
2022/11/24 06:54:38;;;;;;;37.20;14.10;;;;;;;-1.85;97.64;99506.14;105867;1292;66572;-78
2022/11/24 06:57:29;;;;;;;40.70;14.80;;;;;;;-1.83;97.71;99516.14;105826;1292;73683;-80
2022/11/24 07:00:18;;;;;;;35.70;13.60;;;;;;;-1.81;97.60;99525.48;105844;1292;57298;-79
2022/11/24 07:03:05;;;;;;;38.60;14.50;;;;;;;-1.79;97.83;99528.88;105864;1278;60272;-79
2022/11/24 07:05:57;;;;;;;36.90;13.50;;;;;;;-1.79;97.47;99527.84;105866;1291;73987;-78
2022/11/24 07:08:46;;;;;;;39.10;14.90;;;;;;;-1.81;97.57;99532.27;105834;1288;65897;-80
2022/11/24 07:11:36;;;;;;;44.30;15.60;;;;;;;-1.76;98.03;99533.30;105711;1293;69768;-80
2022/11/24 07:14:24;;;;;;;46.70;15.50;;;;;;;-1.71;97.92;99539.38;105866;1292;58446;-78
2022/11/24 07:17:12;;;;;;;46.40;16.90;;;;;;;-1.66;97.75;99544.94;105879;1285;57807;-79
2022/11/24 07:20:00;;;;;;;45.00;16.50;;;;;;;-1.63;97.51;99540.30;105148;1284;1002383;-78
2022/11/24 07:22:47;;;;;;;41.70;15.70;;;;;;;-1.62;96.79;99534.38;105870;1291;66403;-79
2022/11/24 07:25:35;;;;;;;38.00;13.10;;;;;;;-1.60;97.21;99544.20;105854;1300;72456;-79
2022/11/24 07:28:23;;;;;;;37.80;13.40;;;;;;;-1.57;96.91;99545.98;105137;1291;1002034;-80
2022/11/24 07:31:17;;;;;;;35.10;12.10;;;;;;;-1.52;97.35;99534.17;105110;1287;1002935;-80
2022/11/24 07:34:05;;;;;;;49.20;18.10;;;;;;;-1.49;97.16;99543.29;104956;1298;1002377;-78
2022/11/24 07:36:52;;;;;;;49.70;17.90;;;;;;;-1.48;96.93;99552.48;105704;1288;67990;-78
2022/11/24 07:39:40;;;;;;;53.20;16.90;;;;;;;-1.46;97.13;99548.38;105743;1295;70994;-79
2022/11/24 07:42:28;;;;;;;43.70;15.60;;;;;;;-1.41;96.98;99545.42;105755;1295;58725;-79
2022/11/24 07:45:16;;;;;;;46.30;17.30;;;;;;;-1.39;96.64;99546.38;105772;1278;59223;-79
2022/11/24 07:48:04;;;;;;;45.30;16.70;;;;;;;-1.34;96.42;99548.48;105716;1295;71390;-80
2022/11/24 07:50:54;;;;;;;43.70;15.70;;;;;;;-1.31;96.42;99547.84;105750;1294;68892;-78
2022/11/24 07:53:44;;;;;;;51.40;17.90;;;;;;;-1.31;96.04;99547.50;105748;1295;72433;-79
2022/11/24 07:56:31;;;;;;;53.30;18.50;;;;;;;-1.35;95.97;99551.33;105698;1294;57207;-80
2022/11/24 07:59:19;;;;;;;49.40;18.50;;;;;;;-1.36;96.03;99547.68;105792;1293;58625;-78
2022/11/24 08:02:11;;;;;;;49.60;18.50;;;;;;;-1.36;96.11;99542.48;105733;1295;71438;-80
2022/11/24 08:05:00;;;;;;;52.10;19.60;;;;;;;-1.38;96.23;99543.05;105717;1295;66725;-80
2022/11/24 08:07:48;;;;;;;53.00;18.40;;;;;;;-1.33;96.88;99539.21;105760;1295;74219;-78
2022/11/24 08:10:35;;;;;;;45.70;17.70;;;;;;;-1.26;97.04;99539.33;105705;1293;57613;-79
2022/11/24 08:13:23;;;;;;;49.40;18.90;;;;;;;-1.21;96.66;99537.89;105847;1295;60155;-79
2022/11/24 08:16:14;;;;;;;46.70;17.00;;;;;;;-1.16;96.69;99535.30;105927;1288;72990;-79
2022/11/24 08:19:01;;;;;;;49.70;17.90;;;;;;;-1.16;96.44;99530.92;105835;1294;67342;-80
2022/11/24 08:21:49;;;;;;;52.40;18.40;;;;;;;-1.11;96.61;99530.41;105821;1287;73781;-80
2022/11/24 08:24:37;;;;;;;54.70;19.60;;;;;;;-1.09;95.81;99532.05;105755;1287;58962;-78
2022/11/24 08:27:24;;;;;;;49.80;18.70;;;;;;;-1.03;95.87;99531.65;105765;1291;61484;-79
2022/11/24 08:30:13;;;;;;;53.30;18.90;;;;;;;-0.94;96.12;99531.68;105662;1295;73095;-78
2022/11/24 08:33:01;;;;;;;45.60;15.50;;;;;;;-0.86;95.74;99534.46;105751;1287;68807;-78
2022/11/24 08:35:48;;;;;;;51.50;18.20;;;;;;;-0.86;94.35;99533.77;105764;1293;72553;-79
2022/11/24 08:38:37;;;;;;;45.30;16.80;;;;;;;-0.89;94.15;99539.11;105708;1295;57218;-79
2022/11/24 08:41:26;;;;;;;47.20;18.10;;;;;;;-0.93;93.68;99547.81;105036;1287;1002874;-79
2022/11/24 08:44:14;;;;;;;50.70;18.30;;;;;;;-0.96;94.31;99550.38;105045;1295;1002378;-79
2022/11/24 08:47:02;;;;;;;48.10;18.40;;;;;;;-0.94;94.75;99548.53;105695;1293;68852;-79
2022/11/24 08:49:50;;;;;;;50.30;18.50;;;;;;;-0.94;94.34;99554.82;105741;1290;73698;-78
2022/11/24 08:52:37;;;;;;;51.50;18.90;;;;;;;-0.93;94.22;99560.52;105770;1302;57227;-79
2022/11/24 08:55:25;;;;;;;48.20;18.10;;;;;;;-0.91;94.60;99560.29;105820;1295;58850;-79
2022/11/24 08:58:12;;;;;;;48.90;17.50;;;;;;;-0.90;94.57;99559.35;105697;1294;73081;-76
2022/11/24 09:01:18;;;;;;;57.30;19.50;;;;;;;-0.90;94.65;99556.39;105740;1295;66643;-76
2022/11/24 09:04:06;;;;;;;60.00;19.80;;;;;;;-0.90;94.40;99551.16;105668;1298;71136;-76
2022/11/24 09:06:53;;;;;;;57.20;20.00;;;;;;;-0.85;94.85;99549.95;105704;1295;58836;-77
2022/11/24 09:09:41;;;;;;;50.90;19.00;;;;;;;-0.80;94.72;99553.40;105784;1295;60232;-75
2022/11/24 09:12:28;;;;;;;53.60;20.30;;;;;;;-0.73;94.76;99557.69;105689;1294;72968;-75
2022/11/24 09:15:17;;;;;;;46.90;17.30;;;;;;;-0.68;94.38;99561.65;105788;1288;68922;-74
2022/11/24 09:18:05;;;;;;;45.00;17.60;;;;;;;-0.69;93.95;99562.73;105744;1288;72359;-75
2022/11/24 09:20:56;;;;;;;43.50;15.90;;;;;;;-0.70;94.25;99563.47;105792;1286;57209;-77
2022/11/24 09:23:48;;;;;;;56.30;19.70;;;;;;;-0.70;94.20;99565.56;105635;1290;58636;-76
2022/11/24 09:26:37;;;;;;;54.20;19.30;;;;;;;-0.66;94.17;99565.77;105735;1287;71128;-76
2022/11/24 09:29:34;;;;;;;52.10;18.40;;;;;;;-0.57;94.52;99567.69;105693;1296;66346;-76
2022/11/24 09:32:22;;;;;;;46.60;15.80;;;;;;;-0.49;94.31;99566.51;105787;1291;72586;-77
2022/11/24 09:35:10;;;;;;;43.60;15.60;;;;;;;-0.52;92.80;99565.57;105048;1295;1002194;-74
2022/11/24 09:37:57;;;;;;;45.70;17.50;;;;;;;-0.59;93.36;99565.63;105120;1292;1002960;-74
2022/11/24 09:40:45;;;;;;;50.60;18.60;;;;;;;-0.57;93.55;99572.20;105906;1292;72640;-75
2022/11/24 09:43:45;;;;;;;53.10;17.80;;;;;;;-0.51;94.05;99574.74;105879;1292;68835;-76
2022/11/24 09:47:13;;;;;;;51.20;19.00;;;;;;;-0.48;93.17;99570.64;105145;1292;1002333;-76
2022/11/24 09:50:10;;;;;;;58.90;19.60;;;;;;;-0.45;93.19;99574.16;105748;1293;59814;-74
2022/11/24 09:53:12;;;;;;;50.20;18.70;;;;;;;-0.46;92.59;99580.65;105783;1292;58746;-75
2022/11/24 09:56:29;;;;;;;48.10;16.70;;;;;;;-0.46;92.90;99577.17;105752;1294;74088;-73
2022/11/24 09:59:22;;;;;;;47.40;17.50;;;;;;;-0.50;92.82;99579.23;105754;1292;66231;-74
2022/11/24 10:02:12;;;;;;;46.30;18.10;;;;;;;-0.46;93.21;99578.23;105814;1286;72610;-78
2022/11/24 10:04:59;;;;;;;38.60;13.20;;;;;;;-0.41;92.83;99574.00;105738;1301;57338;-78
2022/11/24 10:08:16;;;;;;;38.00;14.00;;;;;;;-0.47;92.12;99575.81;105897;1291;58893;-79
2022/11/24 10:11:20;;;;;;;39.50;14.00;;;;;;;-0.59;91.88;99582.20;105733;1292;72865;-78
2022/11/24 10:14:57;;;;;;;45.90;16.70;;;;;;;-0.63;92.46;99583.08;105856;1292;67782;-81
2022/11/24 10:18:15;;;;;;;49.10;18.30;;;;;;;-0.62;92.77;99584.42;105702;1296;71713;-78
2022/11/24 10:21:35;;;;;;;44.50;17.00;;;;;;;-0.56;93.15;99582.61;105893;1298;58381;-78
2022/11/24 10:24:49;;;;;;;47.20;16.60;;;;;;;-0.47;93.53;99581.23;105927;1291;60069;-80
2022/11/24 10:27:43;;;;;;;48.50;17.50;;;;;;;-0.47;92.65;99573.38;105883;1284;73844;-77
2022/11/24 10:30:31;;;;;;;51.20;18.70;;;;;;;-0.48;92.74;99572.21;105879;1291;69006;-78
2022/11/24 10:33:21;;;;;;;50.90;17.60;;;;;;;-0.53;92.47;99569.42;105890;1292;72747;-78
2022/11/24 10:36:47;;;;;;;51.90;19.80;;;;;;;-0.54;92.92;99572.94;105876;1292;58562;-79
2022/11/24 10:40:13;;;;;;;52.80;18.30;;;;;;;-0.54;93.17;99565.45;105753;1294;60404;-78
2022/11/24 10:43:20;;;;;;;45.10;16.00;;;;;;;-0.51;93.54;99562.34;105892;1292;72956;-78
2022/11/24 10:46:23;;;;;;;50.20;16.90;;;;;;;-0.46;93.46;99562.51;105884;1292;66712;-79
2022/11/24 10:49:23;;;;;;;52.00;19.00;;;;;;;-0.40;93.41;99564.19;105761;1288;72461;-78
2022/11/24 10:52:17;;;;;;;54.00;19.10;;;;;;;-0.30;93.54;99569.23;105653;1297;58458;-79
2022/11/24 10:55:05;;;;;;;51.20;18.30;;;;;;;-0.20;93.43;99568.78;105868;1285;60154;-79
2022/11/24 10:57:53;;;;;;;56.70;21.20;;;;;;;-0.09;93.37;99572.34;105742;1292;73761;-77
2022/11/24 11:00:40;;;;;;;53.70;18.70;;;;;;;-0.06;91.78;99572.39;105722;1295;68917;-78
2022/11/24 11:03:32;;;;;;;53.50;19.40;;;;;;;-0.15;91.30;99578.71;105714;1294;72449;-78
2022/11/24 11:06:27;;;;;;;46.90;17.50;;;;;;;-0.20;91.82;99586.58;105870;1290;57194;-80
2022/11/24 11:09:18;;;;;;;56.90;19.30;;;;;;;-0.25;91.94;99593.74;105863;1291;59959;-79
2022/11/24 11:12:19;;;;;;;53.10;18.70;;;;;;;-0.33;91.86;99590.95;105126;1293;1002230;-79
2022/11/24 11:15:30;;;;;;;59.60;19.80;;;;;;;-0.41;92.46;99587.95;105706;1295;69088;-77
2022/11/24 11:18:19;;;;;;;55.20;20.00;;;;;;;-0.41;92.81;99585.52;105860;1292;70969;-79
2022/11/24 11:21:22;;;;;;;53.30;18.70;;;;;;;-0.42;92.76;99585.53;105722;1295;57281;-79
2022/11/24 11:24:17;;;;;;;56.80;19.80;;;;;;;-0.49;92.47;99581.30;105861;1292;58671;-79
2022/11/24 11:27:18;;;;;;;53.30;18.00;;;;;;;-0.54;92.80;99579.77;105878;1290;73837;-79
2022/11/24 11:30:19;;;;;;;53.50;16.80;;;;;;;-0.56;93.00;99574.23;105865;1294;68910;-78
2022/11/24 11:33:30;;;;;;;56.50;17.70;;;;;;;-0.55;93.19;99572.30;105871;1292;72556;-77
2022/11/24 11:36:48;;;;;;;51.10;16.40;;;;;;;-0.55;93.42;99577.15;105729;1295;58540;-79
2022/11/24 11:39:42;;;;;;;55.90;19.40;;;;;;;-0.51;93.50;99579.45;105846;1295;61285;-79
2022/11/24 11:42:47;;;;;;;53.00;17.70;;;;;;;-0.40;93.99;99572.59;105733;1294;74084;-79
2022/11/24 11:46:02;;;;;;;55.20;19.00;;;;;;;-0.31;93.30;99576.75;105724;1291;68753;-79
2022/11/24 11:48:51;;;;;;;56.70;18.70;;;;;;;-0.20;93.42;99574.17;105721;1292;72423;-79
2022/11/24 11:52:17;;;;;;;44.00;15.70;;;;;;;-0.11;92.94;99570.16;105853;1295;57235;-78
2022/11/24 11:55:47;;;;;;;53.90;19.00;;;;;;;-0.03;92.82;99578.54;105847;1293;60378;-77
2022/11/24 11:58:57;;;;;;;52.10;17.60;;;;;;;0.00;92.11;99579.98;105751;1293;74598;-78
2022/11/24 12:02:04;;;;;;;58.50;19.60;;;;;;;-0.04;91.97;99579.31;105878;1287;67923;-78
2022/11/24 12:05:02;;;;;;;52.40;18.90;;;;;;;-0.13;91.24;99580.02;105730;1296;72667;-78
2022/11/24 12:08:26;;;;;;;59.90;20.80;;;;;;;-0.20;91.78;99575.21;105711;1292;57266;-79
2022/11/24 12:11:29;;;;;;;63.20;21.90;;;;;;;-0.19;92.40;99584.63;105826;1291;61687;-79
2022/11/24 12:14:43;;;;;;;56.40;19.50;;;;;;;-0.20;92.60;99578.73;105734;1301;74103;-78
2022/11/24 12:17:41;;;;;;;55.70;17.60;;;;;;;-0.17;92.88;99575.81;105750;1295;68202;-78
2022/11/24 12:21:01;;;;;;;51.60;16.60;;;;;;;-0.14;92.93;99576.92;105006;1295;1002311;-79
2022/11/24 12:24:20;;;;;;;58.50;19.80;;;;;;;-0.15;92.63;99582.38;105729;1291;57568;-78
2022/11/24 12:28:02;;;;;;;61.20;20.90;;;;;;;-0.15;92.32;99589.54;105740;1294;58970;-80
2022/11/24 12:31:06;;;;;;;64.30;20.50;;;;;;;-0.19;92.34;99594.36;105248;1307;73948;-79
2022/11/24 12:34:16;;;;;;;57.50;20.70;;;;;;;-0.22;92.30;99594.17;105140;1302;67753;-79
2022/11/24 12:37:59;;;;;;;60.00;20.10;;;;;;;-0.28;92.30;99590.23;105276;1305;71249;-79
2022/11/24 12:41:29;;;;;;;57.00;20.10;;;;;;;-0.37;92.25;99592.67;105300;1300;57321;-78
2022/11/24 12:44:46;;;;;;;58.90;20.00;;;;;;;-0.53;92.53;99591.90;105308;1301;60418;-77
2022/11/24 12:47:55;;;;;;;58.80;19.30;;;;;;;-0.59;93.36;99587.09;105280;1300;74018;-78
2022/11/24 12:50:44;;;;;;;60.60;19.50;;;;;;;-0.59;93.49;99585.14;105272;1299;69007;-79
2022/11/24 12:53:36;;;;;;;56.30;18.40;;;;;;;-0.58;93.55;99589.85;105275;1301;71329;-79
2022/11/24 12:56:42;;;;;;;64.10;21.80;;;;;;;-0.61;93.32;99592.75;105314;1300;57277;-78
2022/11/24 12:59:44;;;;;;;56.80;19.70;;;;;;;-0.66;93.39;99594.88;105153;1297;59593;-77
2022/11/24 13:02:47;;;;;;;66.10;20.30;;;;;;;-0.67;94.00;99588.12;105229;1307;73918;-78
2022/11/24 13:05:50;;;;;;;65.80;20.80;;;;;;;-0.67;94.20;99595.29;105335;1299;66642;-77